sensor_id;sensor_type;location;lat;lon;timestamp;temperature;humidity
51908;DHT22;39320;53.214;6.556;2023-06-24T00:00:43;20.40;99.90
51908;DHT22;39320;53.214;6.556;2023-06-24T00:03:09;20.50;99.90
51908;DHT22;39320;53.214;6.556;2023-06-24T00:05:39;20.40;99.90
51908;DHT22;39320;53.214;6.556;2023-06-24T00:08:05;20.40;99.90
51908;DHT22;39320;53.214;6.556;2023-06-24T00:10:32;20.40;99.90
51908;DHT22;39320;53.214;6.556;2023-06-24T00:12:58;20.40;99.90
51908;DHT22;39320;53.214;6.556;2023-06-24T00:15:27;20.40;99.90
51908;DHT22;39320;53.214;6.556;2023-06-24T00:17:52;20.40;99.90
51908;DHT22;39320;53.214;6.556;2023-06-24T00:20:18;20.30;99.90
51908;DHT22;39320;53.214;6.556;2023-06-24T00:22:45;20.40;99.90
51908;DHT22;39320;53.214;6.556;2023-06-24T00:25:14;20.40;99.90
51908;DHT22;39320;53.214;6.556;2023-06-24T00:27:41;20.40;99.90
51908;DHT22;39320;53.214;6.556;2023-06-24T00:30:09;20.40;99.90
51908;DHT22;39320;53.214;6.556;2023-06-24T00:32:35;20.40;99.90
51908;DHT22;39320;53.214;6.556;2023-06-24T00:35:00;20.30;99.90
51908;DHT22;39320;53.214;6.556;2023-06-24T00:37:26;20.30;99.90
51908;DHT22;39320;53.214;6.556;2023-06-24T00:39:52;20.30;99.90
51908;DHT22;39320;53.214;6.556;2023-06-24T00:42:18;20.30;99.90
51908;DHT22;39320;53.214;6.556;2023-06-24T00:44:44;20.30;99.90
51908;DHT22;39320;53.214;6.556;2023-06-24T00:47:10;20.30;99.90
51908;DHT22;39320;53.214;6.556;2023-06-24T00:49:36;20.30;99.90
51908;DHT22;39320;53.214;6.556;2023-06-24T00:52:01;20.30;99.90
51908;DHT22;39320;53.214;6.556;2023-06-24T00:54:27;20.20;99.90
51908;DHT22;39320;53.214;6.556;2023-06-24T00:56:57;20.10;99.90
51908;DHT22;39320;53.214;6.556;2023-06-24T00:59:27;20.00;99.90
51908;DHT22;39320;53.214;6.556;2023-06-24T01:01:58;20.00;99.90
51908;DHT22;39320;53.214;6.556;2023-06-24T01:04:28;19.90;99.90
51908;DHT22;39320;53.214;6.556;2023-06-24T01:06:54;19.90;99.90
51908;DHT22;39320;53.214;6.556;2023-06-24T01:09:21;19.90;99.90
51908;DHT22;39320;53.214;6.556;2023-06-24T01:11:46;19.90;99.90
51908;DHT22;39320;53.214;6.556;2023-06-24T01:14:14;19.90;99.90
51908;DHT22;39320;53.214;6.556;2023-06-24T01:33:16;19.90;99.90
51908;DHT22;39320;53.214;6.556;2023-06-24T01:35:46;19.80;99.90
51908;DHT22;39320;53.214;6.556;2023-06-24T01:38:22;19.80;99.90
51908;DHT22;39320;53.214;6.556;2023-06-24T01:40:50;19.70;99.90
51908;DHT22;39320;53.214;6.556;2023-06-24T01:43:17;19.60;99.90
51908;DHT22;39320;53.214;6.556;2023-06-24T01:45:47;19.50;99.90
51908;DHT22;39320;53.214;6.556;2023-06-24T01:48:15;19.50;99.90
51908;DHT22;39320;53.214;6.556;2023-06-24T01:50:52;19.40;99.90
51908;DHT22;39320;53.214;6.556;2023-06-24T01:53:20;19.30;99.90
51908;DHT22;39320;53.214;6.556;2023-06-24T01:55:47;19.30;99.90
51908;DHT22;39320;53.214;6.556;2023-06-24T01:58:17;19.30;99.90
51908;DHT22;39320;53.214;6.556;2023-06-24T02:00:43;19.20;99.90
51908;DHT22;39320;53.214;6.556;2023-06-24T02:03:10;19.20;99.90
51908;DHT22;39320;53.214;6.556;2023-06-24T02:05:38;19.20;99.90
51908;DHT22;39320;53.214;6.556;2023-06-24T02:08:08;19.20;99.90
51908;DHT22;39320;53.214;6.556;2023-06-24T02:10:37;19.20;99.90
51908;DHT22;39320;53.214;6.556;2023-06-24T02:13:04;19.20;99.90
51908;DHT22;39320;53.214;6.556;2023-06-24T02:15:31;19.20;99.90
51908;DHT22;39320;53.214;6.556;2023-06-24T02:17:59;19.20;99.90
51908;DHT22;39320;53.214;6.556;2023-06-24T02:20:28;19.30;99.90
51908;DHT22;39320;53.214;6.556;2023-06-24T02:22:56;19.30;99.90
51908;DHT22;39320;53.214;6.556;2023-06-24T02:25:26;19.30;99.90
51908;DHT22;39320;53.214;6.556;2023-06-24T02:27:53;19.30;99.90
51908;DHT22;39320;53.214;6.556;2023-06-24T02:30:23;19.30;99.90
51908;DHT22;39320;53.214;6.556;2023-06-24T02:32:51;19.30;99.90
51908;DHT22;39320;53.214;6.556;2023-06-24T02:35:17;19.30;99.90
51908;DHT22;39320;53.214;6.556;2023-06-24T02:37:43;19.30;99.90
51908;DHT22;39320;53.214;6.556;2023-06-24T02:40:11;19.30;99.90
51908;DHT22;39320;53.214;6.556;2023-06-24T02:42:37;19.30;99.90
51908;DHT22;39320;53.214;6.556;2023-06-24T02:45:06;19.30;99.90
51908;DHT22;39320;53.214;6.556;2023-06-24T02:47:43;19.20;99.90
51908;DHT22;39320;53.214;6.556;2023-06-24T02:50:13;19.20;99.90
51908;DHT22;39320;53.214;6.556;2023-06-24T02:52:40;19.20;99.90
51908;DHT22;39320;53.214;6.556;2023-06-24T02:55:06;19.20;99.90
51908;DHT22;39320;53.214;6.556;2023-06-24T02:57:36;19.20;99.90
51908;DHT22;39320;53.214;6.556;2023-06-24T03:00:06;19.20;99.90
51908;DHT22;39320;53.214;6.556;2023-06-24T03:02:38;19.30;99.90
51908;DHT22;39320;53.214;6.556;2023-06-24T03:05:08;19.20;99.90
51908;DHT22;39320;53.214;6.556;2023-06-24T03:07:37;19.20;99.90
51908;DHT22;39320;53.214;6.556;2023-06-24T03:10:04;19.20;99.90
51908;DHT22;39320;53.214;6.556;2023-06-24T03:12:31;19.20;99.90
51908;DHT22;39320;53.214;6.556;2023-06-24T03:18:03;19.20;99.90
51908;DHT22;39320;53.214;6.556;2023-06-24T03:20:40;19.10;99.90
51908;DHT22;39320;53.214;6.556;2023-06-24T03:23:12;19.10;99.90
51908;DHT22;39320;53.214;6.556;2023-06-24T03:25:38;19.10;99.90
51908;DHT22;39320;53.214;6.556;2023-06-24T03:28:10;19.10;99.90
51908;DHT22;39320;53.214;6.556;2023-06-24T03:30:39;19.10;99.90
51908;DHT22;39320;53.214;6.556;2023-06-24T03:33:13;19.00;99.90
51908;DHT22;39320;53.214;6.556;2023-06-24T03:35:45;19.00;99.90
51908;DHT22;39320;53.214;6.556;2023-06-24T03:38:11;19.10;99.90
51908;DHT22;39320;53.214;6.556;2023-06-24T03:40:42;19.10;99.90
51908;DHT22;39320;53.214;6.556;2023-06-24T03:43:14;19.00;99.90
51908;DHT22;39320;53.214;6.556;2023-06-24T03:45:40;18.90;99.90
51908;DHT22;39320;53.214;6.556;2023-06-24T03:48:06;18.90;99.90
51908;DHT22;39320;53.214;6.556;2023-06-24T03:50:39;18.90;99.90
51908;DHT22;39320;53.214;6.556;2023-06-24T03:53:06;18.90;99.90
51908;DHT22;39320;53.214;6.556;2023-06-24T03:55:37;18.80;99.90
51908;DHT22;39320;53.214;6.556;2023-06-24T03:58:06;18.80;99.90
51908;DHT22;39320;53.214;6.556;2023-06-24T04:00:35;18.80;99.90
51908;DHT22;39320;53.214;6.556;2023-06-24T04:03:06;18.90;99.90
51908;DHT22;39320;53.214;6.556;2023-06-24T04:05:34;18.80;99.90
51908;DHT22;39320;53.214;6.556;2023-06-24T04:08:05;18.50;99.90
51908;DHT22;39320;53.214;6.556;2023-06-24T04:10:32;18.80;99.90
51908;DHT22;39320;53.214;6.556;2023-06-24T04:13:01;18.80;99.90
51908;DHT22;39320;53.214;6.556;2023-06-24T04:15:38;18.90;99.90
51908;DHT22;39320;53.214;6.556;2023-06-24T04:18:12;18.80;99.90
51908;DHT22;39320;53.214;6.556;2023-06-24T04:20:48;18.70;99.90
51908;DHT22;39320;53.214;6.556;2023-06-24T04:23:21;18.80;99.90
51908;DHT22;39320;53.214;6.556;2023-06-24T04:25:47;18.50;99.90
51908;DHT22;39320;53.214;6.556;2023-06-24T04:28:15;18.70;99.90
51908;DHT22;39320;53.214;6.556;2023-06-24T04:30:44;18.70;99.90
51908;DHT22;39320;53.214;6.556;2023-06-24T04:33:10;18.70;99.90
51908;DHT22;39320;53.214;6.556;2023-06-24T04:35:50;18.80;99.90
51908;DHT22;39320;53.214;6.556;2023-06-24T04:38:20;18.80;99.90
51908;DHT22;39320;53.214;6.556;2023-06-24T04:40:51;18.80;99.90
51908;DHT22;39320;53.214;6.556;2023-06-24T04:43:21;18.90;99.90
51908;DHT22;39320;53.214;6.556;2023-06-24T04:45:47;18.90;99.90
51908;DHT22;39320;53.214;6.556;2023-06-24T04:48:13;18.90;99.90
51908;DHT22;39320;53.214;6.556;2023-06-24T04:50:39;19.00;99.90
51908;DHT22;39320;53.214;6.556;2023-06-24T04:53:15;19.00;99.90
51908;DHT22;39320;53.214;6.556;2023-06-24T04:55:45;19.00;99.90
51908;DHT22;39320;53.214;6.556;2023-06-24T04:58:19;19.10;99.90
51908;DHT22;39320;53.214;6.556;2023-06-24T05:00:50;19.10;99.90
51908;DHT22;39320;53.214;6.556;2023-06-24T05:03:27;19.10;99.90
51908;DHT22;39320;53.214;6.556;2023-06-24T05:05:53;18.50;99.90
51908;DHT22;39320;53.214;6.556;2023-06-24T05:08:22;19.10;99.90
51908;DHT22;39320;53.214;6.556;2023-06-24T05:10:48;19.20;99.90
51908;DHT22;39320;53.214;6.556;2023-06-24T05:13:20;19.10;99.90
51908;DHT22;39320;53.214;6.556;2023-06-24T05:15:46;19.20;99.90
51908;DHT22;39320;53.214;6.556;2023-06-24T05:18:26;19.20;99.90
51908;DHT22;39320;53.214;6.556;2023-06-24T05:20:54;19.20;99.90
51908;DHT22;39320;53.214;6.556;2023-06-24T05:23:23;19.20;99.90
51908;DHT22;39320;53.214;6.556;2023-06-24T05:25:49;19.30;99.90
51908;DHT22;39320;53.214;6.556;2023-06-24T05:28:21;19.40;99.90
51908;DHT22;39320;53.214;6.556;2023-06-24T05:30:48;19.10;99.90
51908;DHT22;39320;53.214;6.556;2023-06-24T05:33:22;19.40;99.90
51908;DHT22;39320;53.214;6.556;2023-06-24T05:36:00;19.40;99.90
51908;DHT22;39320;53.214;6.556;2023-06-24T05:38:29;19.50;99.90
51908;DHT22;39320;53.214;6.556;2023-06-24T05:41:03;19.50;99.90
51908;DHT22;39320;53.214;6.556;2023-06-24T05:43:32;19.60;99.90
51908;DHT22;39320;53.214;6.556;2023-06-24T05:46:12;19.40;99.90
51908;DHT22;39320;53.214;6.556;2023-06-24T05:49:10;19.60;99.90
51908;DHT22;39320;53.214;6.556;2023-06-24T05:51:50;19.70;99.90
51908;DHT22;39320;53.214;6.556;2023-06-24T05:54:20;19.70;99.90
51908;DHT22;39320;53.214;6.556;2023-06-24T05:57:00;19.80;99.90
51908;DHT22;39320;53.214;6.556;2023-06-24T05:59:38;19.80;99.90
51908;DHT22;39320;53.214;6.556;2023-06-24T06:02:15;19.90;99.90
51908;DHT22;39320;53.214;6.556;2023-06-24T06:04:53;19.80;99.90
51908;DHT22;39320;53.214;6.556;2023-06-24T06:07:36;19.90;99.90
51908;DHT22;39320;53.214;6.556;2023-06-24T06:10:10;19.90;99.90
51908;DHT22;39320;53.214;6.556;2023-06-24T06:12:43;19.90;99.90
51908;DHT22;39320;53.214;6.556;2023-06-24T06:15:41;19.90;99.90
51908;DHT22;39320;53.214;6.556;2023-06-24T06:21:06;19.90;99.90
51908;DHT22;39320;53.214;6.556;2023-06-24T06:23:58;19.80;99.90
51908;DHT22;39320;53.214;6.556;2023-06-24T06:26:47;20.20;99.90
51908;DHT22;39320;53.214;6.556;2023-06-24T06:31:54;20.20;99.90
51908;DHT22;39320;53.214;6.556;2023-06-24T06:34:34;20.10;99.90
51908;DHT22;39320;53.214;6.556;2023-06-24T06:37:05;20.50;99.90
51908;DHT22;39320;53.214;6.556;2023-06-24T06:39:32;20.20;99.90
51908;DHT22;39320;53.214;6.556;2023-06-24T06:42:17;20.30;99.90
51908;DHT22;39320;53.214;6.556;2023-06-24T06:44:54;20.30;99.90
51908;DHT22;39320;53.214;6.556;2023-06-24T06:47:23;20.30;99.90
51908;DHT22;39320;53.214;6.556;2023-06-24T06:53:19;20.40;99.90
51908;DHT22;39320;53.214;6.556;2023-06-24T06:55:56;20.40;99.90
51908;DHT22;39320;53.214;6.556;2023-06-24T06:58:41;19.90;99.90
51908;DHT22;39320;53.214;6.556;2023-06-24T07:01:17;20.50;99.90
51908;DHT22;39320;53.214;6.556;2023-06-24T07:03:46;20.50;99.90
51908;DHT22;39320;53.214;6.556;2023-06-24T07:06:27;20.60;99.90
51908;DHT22;39320;53.214;6.556;2023-06-24T07:09:03;21.10;99.90
51908;DHT22;39320;53.214;6.556;2023-06-24T07:11:43;20.60;99.90
51908;DHT22;39320;53.214;6.556;2023-06-24T07:14:20;20.70;99.90
51908;DHT22;39320;53.214;6.556;2023-06-24T07:16:54;20.70;99.90
51908;DHT22;39320;53.214;6.556;2023-06-24T07:19:23;20.40;99.90
51908;DHT22;39320;53.214;6.556;2023-06-24T07:21:52;20.80;99.90
51908;DHT22;39320;53.214;6.556;2023-06-24T07:24:32;21.00;99.90
51908;DHT22;39320;53.214;6.556;2023-06-24T07:27:06;20.90;99.90
51908;DHT22;39320;53.214;6.556;2023-06-24T07:29:33;20.90;99.90
51908;DHT22;39320;53.214;6.556;2023-06-24T07:32:01;20.80;99.90
51908;DHT22;39320;53.214;6.556;2023-06-24T07:34:33;21.00;99.90
51908;DHT22;39320;53.214;6.556;2023-06-24T07:37:05;21.00;99.90
51908;DHT22;39320;53.214;6.556;2023-06-24T07:39:37;21.10;99.90
51908;DHT22;39320;53.214;6.556;2023-06-24T07:42:11;21.10;99.90
51908;DHT22;39320;53.214;6.556;2023-06-24T07:44:40;21.20;99.90
51908;DHT22;39320;53.214;6.556;2023-06-24T07:47:06;21.20;99.90
51908;DHT22;39320;53.214;6.556;2023-06-24T07:49:32;21.30;99.90
51908;DHT22;39320;53.214;6.556;2023-06-24T07:52:12;21.40;99.90
51908;DHT22;39320;53.214;6.556;2023-06-24T07:54:51;21.50;99.90
51908;DHT22;39320;53.214;6.556;2023-06-24T07:57:33;21.50;99.90
51908;DHT22;39320;53.214;6.556;2023-06-24T08:00:10;21.50;99.90
51908;DHT22;39320;53.214;6.556;2023-06-24T08:02:42;21.70;99.90
51908;DHT22;39320;53.214;6.556;2023-06-24T08:05:31;21.60;99.90
51908;DHT22;39320;53.214;6.556;2023-06-24T08:08:00;21.90;99.90
51908;DHT22;39320;53.214;6.556;2023-06-24T08:10:32;21.70;99.90
51908;DHT22;39320;53.214;6.556;2023-06-24T08:12:58;21.70;99.90
51908;DHT22;39320;53.214;6.556;2023-06-24T08:15:30;21.80;99.90
51908;DHT22;39320;53.214;6.556;2023-06-24T08:18:04;21.70;99.90
51908;DHT22;39320;53.214;6.556;2023-06-24T08:20:31;21.90;99.90
51908;DHT22;39320;53.214;6.556;2023-06-24T08:22:57;21.90;99.90
51908;DHT22;39320;53.214;6.556;2023-06-24T08:25:23;21.90;99.90
51908;DHT22;39320;53.214;6.556;2023-06-24T08:27:53;21.90;99.90
51908;DHT22;39320;53.214;6.556;2023-06-24T08:30:20;21.90;99.90
51908;DHT22;39320;53.214;6.556;2023-06-24T08:32:48;22.00;99.90
51908;DHT22;39320;53.214;6.556;2023-06-24T08:35:14;22.00;99.90
51908;DHT22;39320;53.214;6.556;2023-06-24T08:37:43;22.00;99.90
51908;DHT22;39320;53.214;6.556;2023-06-24T08:40:09;22.10;99.90
51908;DHT22;39320;53.214;6.556;2023-06-24T08:42:35;22.10;99.90
51908;DHT22;39320;53.214;6.556;2023-06-24T08:45:01;22.10;99.90
51908;DHT22;39320;53.214;6.556;2023-06-24T08:47:28;22.20;99.90
51908;DHT22;39320;53.214;6.556;2023-06-24T08:50:07;22.30;99.90
51908;DHT22;39320;53.214;6.556;2023-06-24T08:52:36;22.40;99.90
51908;DHT22;39320;53.214;6.556;2023-06-24T08:55:06;22.40;99.90
51908;DHT22;39320;53.214;6.556;2023-06-24T08:57:39;22.40;99.90
51908;DHT22;39320;53.214;6.556;2023-06-24T09:00:07;22.50;99.90
51908;DHT22;39320;53.214;6.556;2023-06-24T09:02:46;22.50;99.90
51908;DHT22;39320;53.214;6.556;2023-06-24T09:05:15;22.50;99.90
51908;DHT22;39320;53.214;6.556;2023-06-24T09:07:44;22.50;99.90
51908;DHT22;39320;53.214;6.556;2023-06-24T09:10:34;22.60;99.90
51908;DHT22;39320;53.214;6.556;2023-06-24T09:13:05;22.60;99.90
51908;DHT22;39320;53.214;6.556;2023-06-24T09:15:35;22.70;99.90
51908;DHT22;39320;53.214;6.556;2023-06-24T09:18:02;22.70;99.90
51908;DHT22;39320;53.214;6.556;2023-06-24T09:20:43;22.70;99.90
51908;DHT22;39320;53.214;6.556;2023-06-24T09:23:18;22.70;99.90
51908;DHT22;39320;53.214;6.556;2023-06-24T09:25:59;22.70;99.90
51908;DHT22;39320;53.214;6.556;2023-06-24T09:28:28;22.60;99.90
51908;DHT22;39320;53.214;6.556;2023-06-24T09:31:10;22.70;99.90
51908;DHT22;39320;53.214;6.556;2023-06-24T09:33:46;22.70;99.90
51908;DHT22;39320;53.214;6.556;2023-06-24T09:36:26;22.70;99.90
51908;DHT22;39320;53.214;6.556;2023-06-24T09:38:55;22.70;99.90
51908;DHT22;39320;53.214;6.556;2023-06-24T09:41:30;22.80;99.90
51908;DHT22;39320;53.214;6.556;2023-06-24T09:43:58;23.10;99.90
51908;DHT22;39320;53.214;6.556;2023-06-24T09:46:30;22.90;99.90
51908;DHT22;39320;53.214;6.556;2023-06-24T09:49:05;22.90;99.90
51908;DHT22;39320;53.214;6.556;2023-06-24T09:52:05;22.90;99.90
51908;DHT22;39320;53.214;6.556;2023-06-24T09:54:38;22.90;99.90
51908;DHT22;39320;53.214;6.556;2023-06-24T09:57:13;23.00;99.90
51908;DHT22;39320;53.214;6.556;2023-06-24T10:00:03;22.90;99.90
51908;DHT22;39320;53.214;6.556;2023-06-24T10:02:39;23.00;99.90
51908;DHT22;39320;53.214;6.556;2023-06-24T10:05:13;23.00;99.90
51908;DHT22;39320;53.214;6.556;2023-06-24T10:07:47;23.00;99.90
51908;DHT22;39320;53.214;6.556;2023-06-24T10:10:13;23.00;99.90
51908;DHT22;39320;53.214;6.556;2023-06-24T10:12:40;23.00;99.90
51908;DHT22;39320;53.214;6.556;2023-06-24T10:15:06;23.10;99.90
51908;DHT22;39320;53.214;6.556;2023-06-24T10:17:32;23.20;99.90
51908;DHT22;39320;53.214;6.556;2023-06-24T10:19:58;23.20;99.90
51908;DHT22;39320;53.214;6.556;2023-06-24T10:22:30;23.20;99.90
51908;DHT22;39320;53.214;6.556;2023-06-24T10:25:00;23.30;99.90
51908;DHT22;39320;53.214;6.556;2023-06-24T10:27:26;23.30;99.90
51908;DHT22;39320;53.214;6.556;2023-06-24T10:29:54;23.30;99.90
51908;DHT22;39320;53.214;6.556;2023-06-24T10:32:23;23.30;99.90
51908;DHT22;39320;53.214;6.556;2023-06-24T10:34:56;23.30;99.90
51908;DHT22;39320;53.214;6.556;2023-06-24T10:37:24;23.30;99.90
51908;DHT22;39320;53.214;6.556;2023-06-24T10:39:58;23.40;99.90
51908;DHT22;39320;53.214;6.556;2023-06-24T10:42:41;23.50;99.90
51908;DHT22;39320;53.214;6.556;2023-06-24T10:47:44;23.50;99.90
51908;DHT22;39320;53.214;6.556;2023-06-24T10:50:13;23.70;99.90
51908;DHT22;39320;53.214;6.556;2023-06-24T10:52:50;23.80;99.90
51908;DHT22;39320;53.214;6.556;2023-06-24T10:55:22;23.80;99.90
51908;DHT22;39320;53.214;6.556;2023-06-24T10:57:48;23.80;99.90
51908;DHT22;39320;53.214;6.556;2023-06-24T11:00:14;23.80;99.90
51908;DHT22;39320;53.214;6.556;2023-06-24T11:02:41;23.80;99.90
51908;DHT22;39320;53.214;6.556;2023-06-24T11:05:07;23.80;99.90
51908;DHT22;39320;53.214;6.556;2023-06-24T11:07:38;23.90;99.90
51908;DHT22;39320;53.214;6.556;2023-06-24T11:10:12;23.90;99.90
51908;DHT22;39320;53.214;6.556;2023-06-24T11:12:39;23.90;99.90
51908;DHT22;39320;53.214;6.556;2023-06-24T11:15:13;24.00;99.90
51908;DHT22;39320;53.214;6.556;2023-06-24T11:17:40;24.10;99.90
51908;DHT22;39320;53.214;6.556;2023-06-24T11:20:11;24.10;99.90
51908;DHT22;39320;53.214;6.556;2023-06-24T11:22:37;24.10;99.90
51908;DHT22;39320;53.214;6.556;2023-06-24T11:25:05;24.10;99.90
51908;DHT22;39320;53.214;6.556;2023-06-24T11:27:31;24.10;99.90
51908;DHT22;39320;53.214;6.556;2023-06-24T11:30:00;24.20;99.90
51908;DHT22;39320;53.214;6.556;2023-06-24T11:32:41;24.20;99.90
51908;DHT22;39320;53.214;6.556;2023-06-24T11:35:09;24.20;99.90
51908;DHT22;39320;53.214;6.556;2023-06-24T11:37:35;24.20;99.90
51908;DHT22;39320;53.214;6.556;2023-06-24T11:40:08;24.30;99.90
51908;DHT22;39320;53.214;6.556;2023-06-24T11:42:38;24.40;99.90
51908;DHT22;39320;53.214;6.556;2023-06-24T11:45:07;24.40;99.90
51908;DHT22;39320;53.214;6.556;2023-06-24T11:47:34;24.50;99.90
51908;DHT22;39320;53.214;6.556;2023-06-24T11:50:01;24.50;99.90
51908;DHT22;39320;53.214;6.556;2023-06-24T11:52:40;24.50;99.90
51908;DHT22;39320;53.214;6.556;2023-06-24T11:55:27;24.60;99.90
51908;DHT22;39320;53.214;6.556;2023-06-24T11:57:58;24.70;99.90
51908;DHT22;39320;53.214;6.556;2023-06-24T12:00:25;24.70;99.90
51908;DHT22;39320;53.214;6.556;2023-06-24T12:02:53;24.70;99.90
51908;DHT22;39320;53.214;6.556;2023-06-24T12:05:26;24.80;99.90
51908;DHT22;39320;53.214;6.556;2023-06-24T12:08:12;24.90;99.90
51908;DHT22;39320;53.214;6.556;2023-06-24T12:10:41;24.80;99.90
51908;DHT22;39320;53.214;6.556;2023-06-24T12:13:07;24.80;99.90
51908;DHT22;39320;53.214;6.556;2023-06-24T12:15:34;24.80;99.90
51908;DHT22;39320;53.214;6.556;2023-06-24T12:18:00;24.80;99.90
51908;DHT22;39320;53.214;6.556;2023-06-24T12:20:27;24.90;99.90
51908;DHT22;39320;53.214;6.556;2023-06-24T12:22:53;24.90;99.90
51908;DHT22;39320;53.214;6.556;2023-06-24T12:25:19;24.90;99.90
51908;DHT22;39320;53.214;6.556;2023-06-24T12:27:45;25.00;99.90
51908;DHT22;39320;53.214;6.556;2023-06-24T12:30:11;25.10;99.80
51908;DHT22;39320;53.214;6.556;2023-06-24T12:32:38;25.10;99.70
51908;DHT22;39320;53.214;6.556;2023-06-24T12:35:05;25.10;99.90
51908;DHT22;39320;53.214;6.556;2023-06-24T12:37:32;25.10;99.90
51908;DHT22;39320;53.214;6.556;2023-06-24T12:39:58;25.00;99.90
51908;DHT22;39320;53.214;6.556;2023-06-24T12:42:25;25.00;99.80
51908;DHT22;39320;53.214;6.556;2023-06-24T12:44:51;25.10;99.60
51908;DHT22;39320;53.214;6.556;2023-06-24T12:47:16;25.10;99.10
51908;DHT22;39320;53.214;6.556;2023-06-24T12:49:43;25.20;98.80
51908;DHT22;39320;53.214;6.556;2023-06-24T12:52:09;25.20;98.60
51908;DHT22;39320;53.214;6.556;2023-06-24T12:54:35;25.20;98.50
51908;DHT22;39320;53.214;6.556;2023-06-24T12:57:04;25.10;98.40
51908;DHT22;39320;53.214;6.556;2023-06-24T12:59:30;25.10;98.50
51908;DHT22;39320;53.214;6.556;2023-06-24T13:01:56;25.10;98.60
51908;DHT22;39320;53.214;6.556;2023-06-24T13:04:22;25.10;98.80
51908;DHT22;39320;53.214;6.556;2023-06-24T13:06:50;25.10;98.90
51908;DHT22;39320;53.214;6.556;2023-06-24T13:09:17;25.20;99.10
51908;DHT22;39320;53.214;6.556;2023-06-24T13:11:42;25.30;99.00
51908;DHT22;39320;53.214;6.556;2023-06-24T13:14:08;25.10;99.00
51908;DHT22;39320;53.214;6.556;2023-06-24T13:16:37;25.40;99.10
51908;DHT22;39320;53.214;6.556;2023-06-24T13:19:03;25.40;99.20
51908;DHT22;39320;53.214;6.556;2023-06-24T13:21:29;25.40;99.10
51908;DHT22;39320;53.214;6.556;2023-06-24T13:23:56;25.40;99.00
51908;DHT22;39320;53.214;6.556;2023-06-24T13:26:22;25.50;99.00
51908;DHT22;39320;53.214;6.556;2023-06-24T13:28:48;25.50;98.80
51908;DHT22;39320;53.214;6.556;2023-06-24T13:31:15;25.50;98.50
51908;DHT22;39320;53.214;6.556;2023-06-24T13:33:41;25.40;98.20
51908;DHT22;39320;53.214;6.556;2023-06-24T13:36:08;25.40;98.30
51908;DHT22;39320;53.214;6.556;2023-06-24T13:38:37;25.30;98.60
51908;DHT22;39320;53.214;6.556;2023-06-24T13:41:03;25.20;98.90
51908;DHT22;39320;53.214;6.556;2023-06-24T13:43:28;25.20;98.90
51908;DHT22;39320;53.214;6.556;2023-06-24T13:45:54;25.20;99.00
51908;DHT22;39320;53.214;6.556;2023-06-24T13:48:20;25.10;99.10
51908;DHT22;39320;53.214;6.556;2023-06-24T13:50:46;25.10;99.30
51908;DHT22;39320;53.214;6.556;2023-06-24T13:53:12;25.20;99.20
51908;DHT22;39320;53.214;6.556;2023-06-24T13:55:37;25.30;99.30
51908;DHT22;39320;53.214;6.556;2023-06-24T13:58:03;25.30;99.10
51908;DHT22;39320;53.214;6.556;2023-06-24T14:00:29;25.40;98.90
51908;DHT22;39320;53.214;6.556;2023-06-24T14:02:55;25.50;99.00
51908;DHT22;39320;53.214;6.556;2023-06-24T14:05:21;25.50;99.10
51908;DHT22;39320;53.214;6.556;2023-06-24T14:07:47;25.60;99.10
51908;DHT22;39320;53.214;6.556;2023-06-24T14:10:12;25.60;99.10
51908;DHT22;39320;53.214;6.556;2023-06-24T14:12:38;25.70;99.10
51908;DHT22;39320;53.214;6.556;2023-06-24T14:15:08;25.60;98.80
51908;DHT22;39320;53.214;6.556;2023-06-24T14:17:34;25.60;98.70
51908;DHT22;39320;53.214;6.556;2023-06-24T14:19:59;25.50;98.60
51908;DHT22;39320;53.214;6.556;2023-06-24T14:22:25;25.50;98.60
51908;DHT22;39320;53.214;6.556;2023-06-24T14:24:51;25.40;98.60
51908;DHT22;39320;53.214;6.556;2023-06-24T14:27:17;25.40;98.60
51908;DHT22;39320;53.214;6.556;2023-06-24T14:29:43;25.30;98.50
51908;DHT22;39320;53.214;6.556;2023-06-24T14:32:09;25.30;98.50
51908;DHT22;39320;53.214;6.556;2023-06-24T14:34:34;25.30;98.40
51908;DHT22;39320;53.214;6.556;2023-06-24T14:37:00;25.20;98.60
51908;DHT22;39320;53.214;6.556;2023-06-24T14:39:26;25.20;99.20
51908;DHT22;39320;53.214;6.556;2023-06-24T14:41:52;25.20;99.80
51908;DHT22;39320;53.214;6.556;2023-06-24T14:44:17;25.20;99.90
51908;DHT22;39320;53.214;6.556;2023-06-24T14:46:43;25.30;99.90
51908;DHT22;39320;53.214;6.556;2023-06-24T14:49:09;25.40;99.90
51908;DHT22;39320;53.214;6.556;2023-06-24T14:51:34;25.50;99.90
51908;DHT22;39320;53.214;6.556;2023-06-24T14:54:02;25.60;99.90
51908;DHT22;39320;53.214;6.556;2023-06-24T14:56:28;25.70;99.90
51908;DHT22;39320;53.214;6.556;2023-06-24T14:58:54;25.80;99.90
51908;DHT22;39320;53.214;6.556;2023-06-24T15:01:20;25.80;99.90
51908;DHT22;39320;53.214;6.556;2023-06-24T15:03:45;25.80;99.90
51908;DHT22;39320;53.214;6.556;2023-06-24T15:06:11;25.90;99.90
51908;DHT22;39320;53.214;6.556;2023-06-24T15:08:37;25.80;99.90
51908;DHT22;39320;53.214;6.556;2023-06-24T15:11:03;25.90;99.90
51908;DHT22;39320;53.214;6.556;2023-06-24T15:13:28;25.90;99.90
51908;DHT22;39320;53.214;6.556;2023-06-24T15:15:54;25.90;99.90
51908;DHT22;39320;53.214;6.556;2023-06-24T15:18:22;25.90;99.90
51908;DHT22;39320;53.214;6.556;2023-06-24T15:20:48;26.00;99.90
51908;DHT22;39320;53.214;6.556;2023-06-24T15:23:14;25.90;99.90
51908;DHT22;39320;53.214;6.556;2023-06-24T15:25:40;25.90;99.90
51908;DHT22;39320;53.214;6.556;2023-06-24T15:28:06;25.90;99.90
51908;DHT22;39320;53.214;6.556;2023-06-24T15:30:31;26.00;99.90
51908;DHT22;39320;53.214;6.556;2023-06-24T15:32:57;25.90;99.90
51908;DHT22;39320;53.214;6.556;2023-06-24T15:35:23;25.80;99.90
51908;DHT22;39320;53.214;6.556;2023-06-24T15:37:49;25.80;99.90
51908;DHT22;39320;53.214;6.556;2023-06-24T15:40:15;26.00;99.90
51908;DHT22;39320;53.214;6.556;2023-06-24T15:42:40;26.10;99.90
51908;DHT22;39320;53.214;6.556;2023-06-24T15:45:06;26.20;99.90
51908;DHT22;39320;53.214;6.556;2023-06-24T15:47:32;26.20;99.90
51908;DHT22;39320;53.214;6.556;2023-06-24T15:49:58;26.30;99.90
51908;DHT22;39320;53.214;6.556;2023-06-24T15:52:24;26.40;99.90
51908;DHT22;39320;53.214;6.556;2023-06-24T15:54:49;26.40;99.90
51908;DHT22;39320;53.214;6.556;2023-06-24T15:57:15;26.50;99.90
51908;DHT22;39320;53.214;6.556;2023-06-24T15:59:41;26.50;99.90
51908;DHT22;39320;53.214;6.556;2023-06-24T16:02:07;26.50;99.90
51908;DHT22;39320;53.214;6.556;2023-06-24T16:04:33;26.50;99.90
51908;DHT22;39320;53.214;6.556;2023-06-24T16:06:59;26.50;99.90
51908;DHT22;39320;53.214;6.556;2023-06-24T16:09:25;26.50;99.90
51908;DHT22;39320;53.214;6.556;2023-06-24T16:11:50;26.40;99.90
51908;DHT22;39320;53.214;6.556;2023-06-24T16:14:16;26.50;99.90
51908;DHT22;39320;53.214;6.556;2023-06-24T16:16:42;26.50;99.90